Terminal Aerodrome Forecast
Issued by NWS

Home | Current Version | Previous Version | Text Only | Print | Product List | Glossary On
Versions: 1 2 3 4 5 6 7 8 9 10 11 12 13 14
000
FTUS45 KTWC 262327
TAFOLS
TAF
KOLS 262327Z 2700/2724 11018G29KT P6SM VCSH SCT070 BKN140
     FM270300 10014G25KT P6SM SCT060 BKN120 BKN180
     FM271000 06008KT P6SM SCT060 BKN140
     FM271900 10011KT P6SM VCTS SCT070CB BKN130
     FM272300 15009KT P6SM VCSH SCT070 BKN140=

USA.gov is the U.S. government's official web portal to all federal, state and local government web resources and services.